createdAt,value
2022-08-26T00:01:36.540Z,8.73
2022-08-26T00:07:38.875Z,8.53
2022-08-26T00:13:41.345Z,8.97
2022-08-26T00:19:50.003Z,9.03
2022-08-26T00:25:54.700Z,9.20
2022-08-26T00:31:58.794Z,9.63
2022-08-26T00:38:02.433Z,8.70
2022-08-26T00:44:05.649Z,9.50
2022-08-26T00:50:14.116Z,10.17
2022-08-26T00:56:29.349Z,9.13
2022-08-26T01:02:31.475Z,8.10
2022-08-26T01:08:34.106Z,9.97
2022-08-26T01:14:36.987Z,9.40
2022-08-26T01:21:06.313Z,9.50
2022-08-26T01:27:15.600Z,9.40
2022-08-26T01:33:23.608Z,9.10
2022-08-26T01:39:25.690Z,8.80
2022-08-26T01:45:32.189Z,8.47
2022-08-26T01:51:38.201Z,10.20
2022-08-26T01:57:41.042Z,9.10
2022-08-26T02:04:10.792Z,9.47
2022-08-26T02:10:13.093Z,9.90
2022-08-26T02:16:20.949Z,9.80
2022-08-26T02:22:24.932Z,10.60
2022-08-26T02:28:33.294Z,10.10
2022-08-26T02:34:35.318Z,10.30
2022-08-26T02:40:41.072Z,9.83
2022-08-26T02:46:47.097Z,11.27
2022-08-26T02:52:49.458Z,10.80
2022-08-26T02:58:52.297Z,11.17
2022-08-26T03:04:57.911Z,11.30
2022-08-26T03:11:04.276Z,10.10
2022-08-26T03:17:07.012Z,9.60
2022-08-26T03:23:12.479Z,11.10
2022-08-26T03:29:33.143Z,9.93
2022-08-26T03:35:35.729Z,11.80
2022-08-26T03:41:38.040Z,11.47
2022-08-26T03:47:40.747Z,12.00
2022-08-26T03:53:43.806Z,11.47
2022-08-26T03:59:45.755Z,11.93
2022-08-26T04:05:52.203Z,10.83
2022-08-26T04:11:57.609Z,10.80
2022-08-26T04:17:59.557Z,10.10
2022-08-26T04:24:03.393Z,11.50
2022-08-26T04:30:06.955Z,11.70
2022-08-26T04:36:11.803Z,11.33
2022-08-26T04:42:13.906Z,11.37
2022-08-26T04:48:16.864Z,11.40
2022-08-26T04:54:19.397Z,11.73
2022-08-26T05:00:22.161Z,12.30
2022-08-26T05:06:24.324Z,11.73
2022-08-26T05:12:27.854Z,12.43
2022-08-26T05:18:30.294Z,12.50
2022-08-26T05:24:32.389Z,12.10
2022-08-26T05:30:35.488Z,10.90
2022-08-26T05:36:37.929Z,10.83
2022-08-26T05:42:40.284Z,12.20
2022-08-26T05:48:44.448Z,11.37
2022-08-26T05:54:46.566Z,10.70
2022-08-26T06:01:01.389Z,10.40
2022-08-26T06:07:05.432Z,11.20
2022-08-26T06:13:11.872Z,10.97
2022-08-26T06:19:15.622Z,13.50
2022-08-26T06:25:36.080Z,10.57
2022-08-26T06:31:40.061Z,10.90
2022-08-26T06:37:42.842Z,11.33
2022-08-26T06:43:44.829Z,10.60
2022-08-26T06:49:46.960Z,11.30
2022-08-26T06:55:51.865Z,11.37
2022-08-26T07:01:54.723Z,10.50
2022-08-26T07:07:57.971Z,10.33
2022-08-26T07:14:00.934Z,9.40
2022-08-26T07:20:07.565Z,11.10
2022-08-26T07:26:16.159Z,10.50
2022-08-26T07:32:22.830Z,12.40
2022-08-26T07:38:24.950Z,9.90
2022-08-26T07:44:27.790Z,10.20
2022-08-26T07:50:48.796Z,11.20
2022-08-26T07:56:51.896Z,10.53
2022-08-26T08:02:54.243Z,10.50
2022-08-26T08:09:00.833Z,10.47
2022-08-26T08:15:02.856Z,9.73
2022-08-26T08:21:21.441Z,10.47
2022-08-26T08:27:25.736Z,8.80
2022-08-26T08:33:30.162Z,8.93
2022-08-26T08:39:33.091Z,7.43
2022-08-26T08:45:56.521Z,8.10
2022-08-26T08:52:35.284Z,7.90
2022-08-26T08:58:59.100Z,8.07
2022-08-26T09:05:34.052Z,8.30
2022-08-26T09:11:36.645Z,7.40
2022-08-26T09:18:27.642Z,8.20
2022-08-26T09:24:38.356Z,8.27
2022-08-26T09:30:47.926Z,7.63
2022-08-26T09:36:55.731Z,7.97
2022-08-26T09:43:22.604Z,7.17
2022-08-26T09:49:36.417Z,6.13
2022-08-26T09:55:42.958Z,7.60
2022-08-26T10:01:45.252Z,9.03
2022-08-26T10:07:51.175Z,6.30
2022-08-26T10:14:03.319Z,7.00
2022-08-26T10:20:31.279Z,6.90
2022-08-26T10:26:51.760Z,7.70
2022-08-26T10:33:18.475Z,7.97
2022-08-26T10:39:31.843Z,6.97
2022-08-26T10:45:50.742Z,6.87
2022-08-26T10:52:29.506Z,6.57
2022-08-26T10:59:15.235Z,6.40
2022-08-26T11:05:23.530Z,5.67
2022-08-26T11:11:42.045Z,6.30
2022-08-26T11:18:05.160Z,6.37
2022-08-26T11:24:07.153Z,6.37
2022-08-26T11:30:20.793Z,6.50
2022-08-26T11:36:41.097Z,7.10
2022-08-26T11:42:50.743Z,6.50
2022-08-26T11:49:02.767Z,6.20
2022-08-26T11:55:14.339Z,5.63
2022-08-26T12:01:32.490Z,5.40
2022-08-26T12:07:34.696Z,5.10
2022-08-26T12:13:39.056Z,5.13
2022-08-26T12:19:41.162Z,5.60
2022-08-26T12:25:43.192Z,5.33
2022-08-26T12:31:45.630Z,5.73
2022-08-26T12:37:54.065Z,5.80
2022-08-26T12:43:56.727Z,5.60
2022-08-26T12:50:05.944Z,5.50
2022-08-26T12:56:28.933Z,6.40
2022-08-26T13:02:39.989Z,6.07
2022-08-26T13:09:24.327Z,5.50
2022-08-26T13:15:26.401Z,5.00
2022-08-26T13:21:37.384Z,4.93
2022-08-26T13:27:40.390Z,5.37
2022-08-26T13:33:44.490Z,5.77
2022-08-26T13:39:46.795Z,4.23
2022-08-26T13:45:49.469Z,5.20
2022-08-26T13:51:51.479Z,6.47
2022-08-26T13:57:56.625Z,5.47
2022-08-26T14:03:59.095Z,6.67
2022-08-26T14:10:01.665Z,5.80
2022-08-26T14:16:09.142Z,6.00
2022-08-26T14:22:11.199Z,5.83
2022-08-26T14:28:13.226Z,5.63
2022-08-26T14:34:15.699Z,6.17
2022-08-26T14:40:20.333Z,6.40
2022-08-26T14:46:22.455Z,7.23
2022-08-26T14:52:24.924Z,6.00
2022-08-26T14:58:35.020Z,5.97
2022-08-26T15:04:38.444Z,4.80
2022-08-26T15:10:40.444Z,4.80
2022-08-26T15:16:42.583Z,5.00
2022-08-26T15:22:44.596Z,4.43
2022-08-26T15:28:47.366Z,4.20
2022-08-26T15:34:53.019Z,4.40
2022-08-26T15:40:55.346Z,5.00
2022-08-26T15:46:59.083Z,4.00
2022-08-26T15:53:01.478Z,5.03
2022-08-26T15:59:07.514Z,6.20
2022-08-26T16:05:10.411Z,5.73
2022-08-26T16:11:14.032Z,5.33
2022-08-26T16:17:16.072Z,5.10
2022-08-26T16:23:19.011Z,4.30
2022-08-26T16:29:21.055Z,4.33
2022-08-26T16:35:23.223Z,4.60
2022-08-26T16:41:29.279Z,6.50
2022-08-26T16:47:31.760Z,5.20
2022-08-26T16:53:33.837Z,6.03
2022-08-26T16:59:35.991Z,6.10
2022-08-26T17:05:38.340Z,6.30
2022-08-26T17:11:40.472Z,6.63
2022-08-26T17:17:42.604Z,6.93
2022-08-26T17:23:45.135Z,6.37
2022-08-26T17:29:47.116Z,7.80
2022-08-26T17:35:49.090Z,6.77
2022-08-26T17:41:51.535Z,11.80
2022-08-26T17:47:56.609Z,6.40
2022-08-26T17:53:58.664Z,7.60
2022-08-26T18:00:00.955Z,8.43
2022-08-26T18:06:07.977Z,6.53
2022-08-26T18:12:10.795Z,4.57
2022-08-26T18:18:14.858Z,4.10
2022-08-26T18:24:17.003Z,3.33
2022-08-26T18:30:21.608Z,4.20
2022-08-26T18:36:33.271Z,3.00
2022-08-26T18:42:35.493Z,3.93
2022-08-26T18:48:39.622Z,4.17
2022-08-26T18:54:41.599Z,4.57
2022-08-26T19:00:43.596Z,4.40
2022-08-26T19:06:50.964Z,5.80
2022-08-26T19:12:55.382Z,5.37
2022-08-26T19:19:01.916Z,4.53
2022-08-26T19:25:04.392Z,4.40
2022-08-26T19:31:10.475Z,5.20
2022-08-26T19:37:12.502Z,4.63
2022-08-26T19:43:14.488Z,7.30
2022-08-26T19:49:16.548Z,6.60
2022-08-26T19:55:21.003Z,5.90
2022-08-26T20:01:23.335Z,5.47
2022-08-26T20:07:25.494Z,6.37
2022-08-26T20:13:28.241Z,6.30
2022-08-26T20:19:48.981Z,5.70
2022-08-26T20:25:50.958Z,6.57
2022-08-26T20:31:54.627Z,7.00
2022-08-26T20:37:56.678Z,5.80
2022-08-26T20:43:59.404Z,5.80
2022-08-26T20:50:02.525Z,6.63
2022-08-26T20:56:08.282Z,7.47
2022-08-26T21:02:10.360Z,9.27
2022-08-26T21:08:13.218Z,10.63
2022-08-26T21:14:17.010Z,12.27
2022-08-26T21:20:19.804Z,14.00
2022-08-26T21:26:22.952Z,15.23
2022-08-26T21:32:25.002Z,16.17
2022-08-26T21:38:30.855Z,15.20
2022-08-26T21:44:32.867Z,19.07
2022-08-26T21:50:38.230Z,12.60
2022-08-26T21:56:46.157Z,9.20
2022-08-26T22:02:50.199Z,6.40
2022-08-26T22:08:53.848Z,7.47
2022-08-26T22:14:55.845Z,7.40
2022-08-26T22:21:03.200Z,7.60
2022-08-26T22:27:05.358Z,5.67
2022-08-26T22:33:07.447Z,5.97
2022-08-26T22:39:10.469Z,6.87
2022-08-26T22:45:13.070Z,5.93
2022-08-26T22:51:15.110Z,5.50
2022-08-26T22:57:17.109Z,5.90
2022-08-26T23:03:19.282Z,6.20
2022-08-26T23:09:21.386Z,6.97
2022-08-26T23:15:24.531Z,7.83
2022-08-26T23:21:26.534Z,8.73
2022-08-26T23:27:29.209Z,9.63
2022-08-26T23:33:51.281Z,10.80
2022-08-26T23:39:55.205Z,13.57
2022-08-26T23:45:57.310Z,13.97
2022-08-26T23:52:17.810Z,15.27
2022-08-26T23:58:21.947Z,17.50
